Latest Weather Observations for High Range (Wanganderry)

IDN60801

Issued at 3:22 am EDT Wednesday 27 March 2019 (issued every 10 minutes, with the page automatically refreshed every 10 minutes)

About weather observations | Map of weather stations | Latest weather observations for NSW | Other Formats
Station Details ID: 068262 Name: HIGH RANGE AWS (WANGANDERRY) Lat: -34.33 Lon: 150.27 Height: 813.6 m
Data from the previous 72 hours. | See also: Recent months for locations in New South Wales
Date/Time
EDT
Temp
°C
App
Temp
°C
Dew
Point
°C
Rel
Hum
%
Delta-T
°C
Wind Press
QNH
hPa
Press
MSL
hPa
Rain since
9am
mm
Dir  Spd
km/h
Gust
km/h
Spd
kts
Gust
kts
27/03:00am 10.3 7.7 6.3 76 1.9 WSW 9 11 5 6 1023.5 1020.6 0.0
27/02:30am 10.2 7.9 5.8 74 2.1 WSW 7 9 4 5 1023.7 1020.7 0.0
27/02:00am 10.4 8.1 5.6 72 2.3 WSW 7 9 4 5 1023.7 1020.7 0.0
27/01:30am 10.8 8.6 5.3 69 2.6 WSW 6 9 3 5 1023.5 1020.6 0.0
27/01:00am 11.2 9.5 4.2 62 3.3 WSW 2 6 1 3 1023.4 1020.5 0.0
27/12:30am 11.3 9.4 3.1 57 3.8 WSW 2 4 1 2 1023.5 1020.6 0.0
27/12:00am 11.3 9.4 2.9 56 3.8 WSW 2 4 1 2 1023.8 1020.8 0.0
 
Date/Time
EDT
Temp
°C
App
Temp
°C
Dew
Point
°C
Rel
Hum
%
Delta-T
°C
Wind Press
QNH
hPa
Press
MSL
hPa
Rain since
9am
mm
Dir  Spd
km/h
Gust
km/h
Spd
kts
Gust
kts
26/11:30pm 10.9 8.6 2.5 56 3.8 WSW 4 6 2 3 1023.8 1020.8 0.0
26/11:00pm 10.4 7.7 2.5 58 3.5 WSW 6 9 3 5 1023.8 1020.8 0.0
26/10:30pm 11.1 8.8 2.7 56 3.8 WSW 4 6 2 3 1023.5 1020.6 0.0
26/10:00pm 11.2 8.5 2.5 55 3.9 WSW 6 9 3 5 1023.2 1020.3 0.0
26/09:30pm 11.6 7.6 2.6 54 4.1 WSW 13 17 7 9 1023.0 1020.0 0.0
26/09:00pm 11.9 6.6 2.9 54 4.1 W 20 24 11 13 1022.1 1019.2 0.0
26/08:30pm 11.9 6.2 2.9 54 4.1 W 22 24 12 13 1021.6 1018.6 0.0
26/08:00pm 11.8 7.1 3.1 55 4.0 W 17 19 9 10 1021.2 1018.2 0.0
26/07:30pm 12.3 8.3 2.7 52 4.4 WSW 13 19 7 10 1020.7 1017.7 0.0
26/07:00pm 13.2 9.4 1.5 45 5.3 WSW 11 15 6 8 1020.1 1017.1 0.0
26/06:30pm 14.7 9.8 1.9 42 5.9 WSW 17 24 9 13 1019.4 1016.4 0.0
26/06:00pm 16.0 11.5 2.4 40 6.4 WSW 15 22 8 12 1018.9 1015.9 0.0
26/05:30pm 16.6 12.3 0.7 34 7.2 SSW 13 20 7 11 1018.7 1015.7 0.0
26/05:00pm 16.9 11.3 1.0 34 7.3 WSW 20 28 11 15 1018.2 1015.2 0.0
26/04:30pm 16.9 9.7 0.5 33 7.5 SW 28 35 15 19 1017.9 1014.9 0.0
26/04:00pm 17.3 10.8 2.5 37 7.0 WSW 26 41 14 22 1017.7 1014.7 0.0
26/03:30pm 17.0 9.0 0.6 33 7.5 WSW 32 43 17 23 1017.6 1014.6 0.0
26/03:00pm 16.7 9.4 -0.1 32 7.5 WSW 28 44 15 24 1017.7 1014.7 0.0
26/02:30pm 16.6 9.5 1.1 35 7.1 W 28 43 15 23 1017.8 1014.8 0.0
26/02:00pm 16.5 9.5 2.2 38 6.7 WSW 28 50 15 27 1017.9 1014.9 0.0
26/01:59pm 16.3 9.2 1.2 36 6.9 SW 28 50 15 27 1017.8 1014.8 0.0
26/01:30pm 15.7 8.4 2.2 40 6.3 SW 30 43 16 23 1018.1 1015.1 0.0
26/01:03pm 15.3 7.3 1.4 39 6.4 WSW 33 54 18 29 1017.9 1014.9 0.0
26/01:00pm 15.3 7.5 1.8 40 6.2 WSW 32 46 17 25 1017.9 1014.9 0.0
26/12:30pm 14.6 5.4 1.5 41 6.0 WSW 39 52 21 28 1017.8 1014.8 0.0
26/12:00pm 14.7 8.5 2.3 43 5.7 W 24 46 13 25 1017.8 1014.8 0.0
26/11:30am 13.9 7.3 1.9 44 5.5 W 26 39 14 21 1017.7 1014.7 0.0
26/11:00am 13.4 7.5 1.7 45 5.3 WSW 22 37 12 20 1017.4 1014.3 0.0
26/10:43am 12.9 5.1 1.9 47 5.0 WSW 32 52 17 28 1016.9 1013.9 0.0
26/10:30am 12.4 3.7 2.0 49 4.7 WSW 37 50 20 27 1016.8 1013.8 0.0
26/10:00am 11.3 2.2 2.1 53 4.1 WSW 39 59 21 32 1016.6 1013.6 0.0
26/09:51am 10.9 1.7 1.4 52 4.2 WSW 39 59 21 32 1016.3 1013.2 0.0
26/09:30am 10.7 0.7 2.0 55 3.9 W 44 59 24 32 1015.9 1012.8 0.0
26/09:06am 10.5 0.6 1.9 55 3.8 W 43 65 23 35 1015.5 1012.5 0.0
26/09:00am 10.3 0.4 1.7 55 3.8 WSW 43 57 23 31 1015.4 1012.4 1.4
26/08:44am 10.1 -0.5 1.0 53 3.9 W 46 65 25 35 1015.2 1012.1 1.4
26/08:30am 9.7 -0.2 1.6 57 3.5 W 43 54 23 29 1015.2 1012.1 1.4
26/08:00am 9.2 -0.6 2.1 61 3.1 W 43 57 23 31 1014.7 1011.6 1.4
26/07:30am 8.9 -0.8 2.7 65 2.8 WSW 43 56 23 30 1014.7 1011.6 1.4
26/07:00am 8.9 -0.8 2.9 66 2.7 W 43 57 23 31 1014.7 1011.6 1.4
26/06:30am 9.0 0.6 3.6 69 2.5 W 37 52 20 28 1014.8 1011.7 1.4
26/06:00am 9.3 1.5 4.7 73 2.2 W 35 46 19 25 1014.8 1011.7 1.4
26/05:30am 9.6 2.4 5.8 77 1.8 W 33 43 18 23 1014.9 1011.8 1.4
26/05:00am 9.5 3.8 6.6 82 1.4 W 26 33 14 18 1014.9 1011.8 1.4
26/04:30am 10.2 4.2 6.9 80 1.6 W 28 37 15 20 1014.7 1011.6 1.4
26/04:00am 10.4 4.8 7.1 80 1.6 W 26 37 14 20 1014.5 1011.4 1.4
26/03:30am 10.7 5.9 7.2 79 1.7 WSW 22 32 12 17 1014.6 1011.5 1.4
26/03:00am 11.1 5.9 7.4 78 1.9 WSW 24 37 13 20 1014.7 1011.6 1.4
26/02:30am 11.3 6.6 7.6 78 1.9 WSW 22 28 12 15 1014.9 1011.8 1.4
26/02:00am 11.7 7.6 8.6 81 1.6 WSW 20 26 11 14 1015.0 1011.9 1.4
26/01:30am 12.4 6.5 8.9 79 1.8 WSW 30 44 16 24 1015.2 1012.1 1.4
26/01:00am 12.4 6.9 9.1 80 1.7 WSW 28 43 15 23 1015.0 1011.9 1.4
26/12:30am 12.6 6.7 9.2 80 1.8 WSW 30 43 16 23 1014.8 1011.7 1.4
26/12:00am 12.4 8.1 9.2 81 1.7 W 22 32 12 17 1014.7 1011.6 1.4
 
Date/Time
EDT
Temp
°C
App
Temp
°C
Dew
Point
°C
Rel
Hum
%
Delta-T
°C
Wind Press
QNH
hPa
Press
MSL
hPa
Rain since
9am
mm
Dir  Spd
km/h
Gust
km/h
Spd
kts
Gust
kts
25/11:30pm 12.4 8.4 9.1 80 1.7 WSW 20 28 11 15 1014.6 1011.5 1.4
25/11:00pm 12.4 9.0 9.1 80 1.7 WSW 17 20 9 11 1014.6 1011.5 1.4
25/10:30pm 12.9 8.2 9.2 78 2.0 WSW 24 32 13 17 1014.4 1011.3 1.4
25/10:00pm 13.0 9.3 9.6 80 1.8 W 19 24 10 13 1014.4 1011.3 1.4
25/09:30pm 13.1 8.2 9.9 81 1.7 W 26 39 14 21 1014.0 1010.9 1.4
25/09:00pm 13.6 10.3 11.5 87 1.2 WNW 20 26 11 14 1013.8 1010.7 1.4
25/08:30pm 13.8 10.0 12.5 92 0.7 W 24 32 13 17 1013.9 1010.8 1.4
25/08:00pm 14.2 9.7 12.6 90 0.9 W 28 39 15 21 1013.7 1010.6 1.2
25/07:30pm 14.7 9.4 12.6 87 1.2 W 32 44 17 24 1012.8 1009.7 1.2
25/07:00pm 15.2 11.1 13.9 92 0.8 WSW 28 39 15 21 1012.4 1009.3 1.2
25/06:30pm 16.2 14.7 15.2 94 0.6 W 17 26 9 14 1011.8 1008.6 1.2
25/06:00pm 16.5 13.9 15.9 96 0.4 W 24 35 13 19 1011.4 1008.3 1.2
25/05:30pm 19.3 14.1 14.6 74 2.8 WNW 35 57 19 31 1010.1 1007.0 0.0
25/05:00pm 19.4 14.2 14.4 73 3.0 WNW 35 63 19 34 1010.1 1007.0 0.0
25/04:30pm 19.5 13.9 14.5 73 3.0 WNW 37 59 20 32 1010.1 1007.0 0.0
25/04:00pm 19.7 15.9 14.7 73 3.0 WNW 28 48 15 26 1009.8 1006.6 0.0
25/03:55pm 19.6 15.7 14.4 72 3.1 WNW 28 48 15 26 1009.6 1006.4 0.0
25/03:30pm 19.4 15.9 14.6 74 2.9 NW 26 46 14 25 1009.9 1006.8 0.0
25/03:00pm 19.1 15.7 14.8 76 2.6 WNW 26 35 14 19 1009.9 1006.8 0.0
25/02:31pm 19.0 15.3 14.9 77 2.5 WNW 28 46 15 25 1010.0 1006.9 0.0
25/02:30pm 19.0 14.9 14.9 77 2.5 WNW 30 46 16 25 1009.9 1006.8 0.0
25/02:00pm 18.6 13.8 14.7 78 2.4 WNW 33 54 18 29 1010.6 1007.4 0.0
25/01:52pm 18.5 14.3 14.6 78 2.3 WNW 30 54 16 29 1010.7 1007.5 0.0
25/01:30pm 18.4 14.8 14.3 77 2.5 WNW 26 41 14 22 1010.9 1007.7 0.0
25/01:00pm 18.4 14.8 14.3 77 2.5 WNW 26 43 14 23 1011.1 1008.0 0.0
25/12:30pm 18.4 14.4 14.1 76 2.6 WNW 28 37 15 20 1011.3 1008.2 0.0
25/12:00pm 18.3 13.5 14.0 76 2.6 WNW 32 52 17 28 1011.4 1008.3 0.0
25/11:59am 18.3 13.5 14.0 76 2.6 WNW 32 52 17 28 1011.4 1008.3 0.0
25/11:30am 18.1 13.0 13.8 76 2.5 WNW 33 48 18 26 1011.2 1008.1 0.0
25/11:00am 17.7 12.6 13.8 78 2.3 WNW 33 46 18 25 1011.5 1008.4 0.0
25/10:30am 17.6 12.4 13.5 77 2.4 WNW 33 48 18 26 1011.5 1008.4 0.0
25/10:00am 17.1 12.0 13.0 77 2.4 WNW 32 46 17 25 1011.8 1008.6 0.0
25/09:30am 16.9 11.1 12.8 77 2.4 WNW 35 50 19 27 1011.9 1008.7 0.0
25/09:00am 16.4 11.1 12.6 78 2.2 WNW 32 43 17 23 1012.6 1009.5 1.2
25/08:50am 16.6 12.1 12.6 77 2.3 W 28 48 15 26 1012.5 1009.4 1.2
25/08:30am 16.5 13.1 12.5 77 2.3 WNW 22 39 12 21 1012.4 1009.3 1.2
25/08:00am 16.2 11.3 12.4 78 2.2 WNW 30 43 16 23 1012.2 1009.1 1.2
25/07:30am 16.0 10.5 12.6 80 2.0 WNW 33 44 18 24 1012.3 1009.2 1.2
25/07:15am 16.1 10.7 12.7 80 2.0 WNW 33 57 18 31 1012.4 1009.3 1.2
25/07:00am 16.0 11.1 12.7 81 1.9 WNW 30 41 16 22 1012.8 1009.7 1.2
25/06:30am 15.9 11.6 13.2 84 1.6 WNW 28 39 15 21 1013.1 1009.9 1.2
25/06:03am 16.3 11.9 13.0 81 1.9 WNW 28 48 15 26 1013.3 1010.2 1.0
25/06:00am 16.4 12.8 13.1 81 1.9 WNW 24 41 13 22 1013.3 1010.2 1.0
25/05:30am 16.8 11.7 13.1 79 2.2 W 32 50 17 27 1013.4 1010.3 1.0
25/05:29am 16.9 11.8 13.0 78 2.3 W 32 50 17 27 1013.3 1010.2 1.0
25/05:00am 17.3 12.2 13.2 77 2.4 W 32 50 17 27 1013.4 1010.3 1.0
25/04:43am 17.4 13.0 12.9 75 2.6 WNW 28 46 15 25 1013.2 1010.0 1.0
25/04:30am 17.4 13.4 13.1 76 2.5 WNW 26 35 14 19 1012.9 1009.8 1.0
25/04:00am 17.4 15.5 13.1 76 2.5 NW 15 22 8 12 1012.1 1008.9 1.0
25/03:30am 17.4 14.6 13.3 77 2.4 W 20 33 11 18 1012.3 1009.2 1.0
25/03:00am 17.1 13.7 13.6 80 2.1 W 24 35 13 19 1012.6 1009.5 1.0
25/02:30am 17.9 14.3 13.2 74 2.8 WNW 24 37 13 20 1013.2 1010.0 0.8
25/02:00am 17.8 15.0 13.1 74 2.7 WNW 20 28 11 15 1012.5 1009.4 0.8
25/01:30am 17.9 15.7 13.2 74 2.8 WNW 17 26 9 14 1012.8 1009.7 0.8
25/01:00am 17.7 15.9 13.2 75 2.6 WNW 15 20 8 11 1013.3 1010.2 0.8
25/12:30am 18.3 15.7 13.2 72 3.0 WNW 19 24 10 13 1013.8 1010.7 0.8
25/12:00am 18.5 15.4 13.4 72 3.0 WNW 22 30 12 16 1014.5 1011.4 0.8
 
Date/Time
EDT
Temp
°C
App
Temp
°C
Dew
Point
°C
Rel
Hum
%
Delta-T
°C
Wind Press
QNH
hPa
Press
MSL
hPa
Rain since
9am
mm
Dir  Spd
km/h
Gust
km/h
Spd
kts
Gust
kts
24/11:30pm 18.9 16.3 13.3 70 3.3 WNW 19 28 10 15 1014.4 1011.3 0.8
24/11:00pm 18.8 16.3 13.4 71 3.2 WNW 19 24 10 13 1014.1 1011.0 0.8
24/10:30pm 19.1 16.5 13.3 69 3.4 NW 19 26 10 14 1013.8 1010.7 0.8
24/10:00pm 18.9 16.8 13.5 71 3.2 NW 17 22 9 12 1013.6 1010.5 0.8
24/09:30pm 18.2 18.3 13.9 76 2.6 W 6 9 3 5 1013.7 1010.6 0.8
24/09:00pm 18.9 17.6 13.7 72 3.1 NW 13 20 7 11 1013.9 1010.8 0.8
24/08:30pm 18.7 17.1 13.8 73 2.9 NW 15 24 8 13 1014.1 1011.0 0.8
24/08:00pm 18.7 16.7 14.0 74 2.8 NW 17 22 9 12 1014.2 1011.1 0.8
24/07:30pm 19.1 17.7 14.4 74 2.8 NW 15 19 8 10 1014.5 1011.4 0.6
24/07:00pm 19.6 19.6 15.3 76 2.6 NW 9 15 5 8 1014.7 1011.6 0.4
24/06:30pm 20.8 20.3 14.9 69 3.6 NNW 11 17 6 9 1014.6 1011.5 0.0
24/06:00pm 21.5 21.3 14.6 65 4.2 NNW 9 13 5 7 1014.2 1011.1 0.0
24/05:30pm 22.1 20.4 13.7 59 5.1 NW 15 20 8 11 1013.8 1010.7 0.0
24/05:00pm 22.1 21.1 14.5 62 4.6 NW 13 17 7 9 1013.9 1010.8 0.0
24/04:30pm 22.2 22.4 14.6 62 4.6 WSW 7 11 4 6 1013.8 1010.7 0.0
24/04:00pm 22.2 22.4 14.8 63 4.5 WSW 7 11 4 6 1014.0 1010.9 0.0
24/03:30pm 22.5 22.4 14.9 62 4.7 SW 9 13 5 7 1014.2 1011.1 0.0
24/03:00pm 22.3 22.0 14.4 61 4.8 SW 9 11 5 6 1014.4 1011.3 0.0
24/02:30pm 22.2 21.3 13.8 59 5.1 SW 11 15 6 8 1014.8 1011.7 0.0
24/02:00pm 22.4 20.8 14.0 59 5.1 SW 15 19 8 10 1015.3 1012.2 0.0
24/01:30pm 22.9 21.4 15.2 62 4.8 SSW 17 20 9 11 1015.5 1012.5 0.0
24/01:00pm 22.7 20.6 14.8 61 4.8 WSW 19 22 10 12 1015.8 1012.7 0.0
24/12:30pm 22.4 21.2 16.2 68 3.9 SW 17 22 9 12 1015.9 1012.8 0.0
24/12:00pm 21.4 18.8 14.8 66 4.0 SW 22 30 12 16 1016.2 1013.1 0.0
24/11:30am 20.9 18.3 15.0 69 3.6 SW 22 30 12 16 1016.6 1013.6 0.0
24/11:00am 20.5 18.4 15.3 72 3.2 WSW 20 28 11 15 1017.1 1014.0 0.0
24/10:30am 20.5 17.3 14.2 67 3.8 WSW 24 32 13 17 1016.8 1013.8 0.0
24/10:00am 21.4 18.8 13.3 60 4.8 W 19 24 10 13 1016.6 1013.6 0.0
24/09:30am 21.1 18.9 13.3 61 4.6 W 17 17 9 9 1016.3 1013.2 0.0
24/09:00am 20.8 18.8 12.8 60 4.7 W 15 17 8 9 1016.1 1013.0 0.4
24/08:30am 21.1 19.0 12.3 57 5.1 W 15 19 8 10 1015.8 1012.7 0.4
24/08:00am 21.2 19.5 12.3 57 5.2 W 13 15 7 8 1015.4 1012.4 0.4
24/07:30am 21.1 18.6 12.3 57 5.1 WNW 17 17 9 9 1015.8 1012.7 0.4
24/07:00am 21.9 19.4 12.2 54 5.7 NW 17 19 9 10 1015.1 1012.0 0.4
24/06:30am 21.3 18.8 13.5 61 4.7 NW 19 20 10 11 1014.5 1011.4 0.4
24/06:00am 20.1 18.1 14.0 68 3.7 WNW 17 19 9 10 1013.8 1010.7 0.4
24/05:30am 19.8 17.9 14.2 70 3.4 WNW 17 20 9 11 1013.6 1010.5 0.4
24/05:00am 19.8 17.7 14.6 72 3.1 WNW 19 20 10 11 1013.4 1010.3 0.4
24/04:30am 19.8 17.7 14.8 73 3.0 WNW 19 20 10 11 1013.5 1010.4 0.4
24/04:00am 19.6 17.5 14.8 74 2.9 WNW 19 22 10 12 1013.8 1010.7 0.4
24/03:30am 19.8 18.3 15.4 76 2.7 WNW 17 20 9 11 1014.0 1010.9 0.4

Other formats

Comma delimited format used in spreadsheet applications
http://www.bom.gov.au/fwo/IDN60801/IDN60801.99742.axf

JavaScript Object Notation format (JSON) in row-major order
http://www.bom.gov.au/fwo/IDN60801/IDN60801.99742.json

Data quality

Most of these data are generated automatically and are frequently updated. Quality checks on data are not normally performed. It is possible for incorrect values to appear. Refer to information at About Latest Weather Observations and please check the disclaimer before using these data.